Time;durP1;ratioP1;P1;durP2;ratioP2;P2;SDS_P1;SDS_P2;PMS_P1;PMS_P2;Temp;Humidity;BMP_temperature;BMP_pressure;BME280_temperature;BME280_humidity;BME280_pressure;Samples;Min_cycle;Max_cycle;Signal;HPM_P1;HPM_P2
2022/02/25 00:01:05;;;;;;;0.80;0.80;;;;;;;;;;5016267;28;20590;-81
2022/02/25 00:03:32;;;;;;;0.88;0.88;;;;;;;;;;5015700;28;20219;-80
2022/02/25 00:05:59;;;;;;;0.60;0.60;;;;;;;;;;5016342;28;20224;-81
2022/02/25 00:08:28;;;;;;;0.63;0.63;;;;;;;;;;5016237;28;20210;-82
2022/02/25 00:10:55;;;;;;;0.50;0.50;;;;;;;;;;5015903;28;20729;-81
2022/02/25 00:13:23;;;;;;;0.60;0.60;;;;;;;;;;5016255;28;20285;-81
2022/02/25 00:15:51;;;;;;;0.55;0.55;;;;;;;;;;5016508;28;20605;-81
2022/02/25 00:18:18;;;;;;;0.70;0.70;;;;;;;;;;5016193;28;20233;-82
2022/02/25 00:20:46;;;;;;;0.68;0.65;;;;;;;;;;5016528;28;20203;-82
2022/02/25 00:23:13;;;;;;;0.70;0.70;;;;;;;;;;5015681;28;20287;-82
2022/02/25 00:25:42;;;;;;;0.60;0.60;;;;;;;;;;5016269;28;20715;-82
2022/02/25 00:28:10;;;;;;;0.70;0.70;;;;;;;;;;5016128;28;20207;-82
2022/02/25 00:30:37;;;;;;;0.68;0.68;;;;;;;;;;5015947;28;20227;-81
2022/02/25 00:33:04;;;;;;;0.57;0.57;;;;;;;;;;5015457;28;20290;-82
2022/02/25 00:35:31;;;;;;;0.50;0.50;;;;;;;;;;5015340;28;20273;-82
2022/02/25 00:37:59;;;;;;;0.60;0.60;;;;;;;;;;5015705;28;20199;-82
2022/02/25 00:40:27;;;;;;;0.73;0.73;;;;;;;;;;5016144;28;20209;-82
2022/02/25 00:42:55;;;;;;;0.95;0.75;;;;;;;;;;5016281;28;20207;-82
2022/02/25 00:45:23;;;;;;;0.60;0.60;;;;;;;;;;5015832;28;20223;-82
2022/02/25 00:47:50;;;;;;;0.68;0.68;;;;;;;;;;5016472;28;20199;-81
2022/02/25 00:50:18;;;;;;;0.70;0.70;;;;;;;;;;5015551;28;20230;-82
2022/02/25 00:52:45;;;;;;;0.50;0.50;;;;;;;;;;5015481;28;20210;-82
2022/02/25 00:55:12;;;;;;;0.50;0.50;;;;;;;;;;5015206;28;20598;-82
2022/02/25 00:57:45;;;;;;;3.08;0.85;;;;;;;;;;5015453;28;20202;-80
2022/02/25 01:00:16;;;;;;;0.60;0.60;;;;;;;;;;5015594;28;20199;-81
2022/02/25 01:02:44;;;;;;;1.10;0.70;;;;;;;;;;5015266;28;20211;-81
2022/02/25 01:05:12;;;;;;;0.70;0.70;;;;;;;;;;5015053;28;20230;-82
2022/02/25 01:07:40;;;;;;;0.45;0.45;;;;;;;;;;5015708;28;20238;-81
2022/02/25 01:10:10;;;;;;;0.70;0.70;;;;;;;;;;5015053;28;20234;-80
2022/02/25 01:12:38;;;;;;;0.57;0.57;;;;;;;;;;5014913;28;20210;-82
2022/02/25 01:15:07;;;;;;;0.90;0.90;;;;;;;;;;5015179;28;20222;-81
2022/02/25 01:17:35;;;;;;;1.23;0.95;;;;;;;;;;5015160;28;20207;-80
2022/02/25 01:20:05;;;;;;;2.10;0.90;;;;;;;;;;5015029;28;20210;-82
2022/02/25 01:22:32;;;;;;;2.40;0.73;;;;;;;;;;5014958;28;20214;-82
2022/02/25 01:25:00;;;;;;;2.10;1.35;;;;;;;;;;5014636;28;20226;-81
2022/02/25 01:27:27;;;;;;;1.05;1.02;;;;;;;;;;5015353;28;20202;-81
2022/02/25 01:29:55;;;;;;;0.85;0.80;;;;;;;;;;5015454;28;20255;-82
2022/02/25 01:32:22;;;;;;;1.55;0.80;;;;;;;;;;5014916;28;20226;-81
2022/02/25 01:34:51;;;;;;;0.43;0.43;;;;;;;;;;5015505;28;20210;-82
2022/02/25 01:37:18;;;;;;;1.00;0.82;;;;;;;;;;5014632;28;20671;-81
2022/02/25 01:39:46;;;;;;;0.60;0.60;;;;;;;;;;5014807;28;20210;-81
2022/02/25 01:42:13;;;;;;;0.90;0.90;;;;;;;;;;5014851;28;20203;-81
2022/02/25 01:44:42;;;;;;;0.82;0.82;;;;;;;;;;5014474;28;20207;-82
2022/02/25 01:47:11;;;;;;;1.38;0.80;;;;;;;;;;5015175;28;20206;-81
2022/02/25 01:49:39;;;;;;;0.60;0.60;;;;;;;;;;5014580;28;20203;-82
2022/02/25 01:52:12;;;;;;;1.77;0.90;;;;;;;;;;5014261;28;20223;-82
2022/02/25 01:54:41;;;;;;;0.70;0.70;;;;;;;;;;5015453;28;20214;-82
2022/02/25 01:57:11;;;;;;;0.90;0.90;;;;;;;;;;5014843;28;20199;-81
2022/02/25 01:59:39;;;;;;;0.68;0.68;;;;;;;;;;5014874;28;20242;-82
2022/02/25 02:02:08;;;;;;;0.82;0.80;;;;;;;;;;5014337;28;20202;-82
2022/02/25 02:04:37;;;;;;;1.10;1.08;;;;;;;;;;5014614;28;20293;-80
2022/02/25 02:07:08;;;;;;;1.15;0.90;;;;;;;;;;5014706;28;20650;-81
2022/02/25 02:09:35;;;;;;;1.90;0.70;;;;;;;;;;5014624;28;20761;-81
2022/02/25 02:12:03;;;;;;;1.05;0.93;;;;;;;;;;5014359;28;20227;-81
2022/02/25 02:14:30;;;;;;;1.30;1.30;;;;;;;;;;5014997;28;20210;-81
2022/02/25 02:16:59;;;;;;;1.42;1.17;;;;;;;;;;5013921;28;20227;-81
2022/02/25 02:19:29;;;;;;;1.83;1.35;;;;;;;;;;5015233;28;20210;-81
2022/02/25 02:21:58;;;;;;;1.10;1.10;;;;;;;;;;5014137;28;20590;-81
2022/02/25 02:24:27;;;;;;;2.83;1.10;;;;;;;;;;5014572;28;20295;-81
2022/02/25 02:26:56;;;;;;;1.88;1.00;;;;;;;;;;5015342;28;20246;-81
2022/02/25 02:29:24;;;;;;;0.90;0.90;;;;;;;;;;5017921;28;20211;-81
2022/02/25 02:31:52;;;;;;;1.55;1.20;;;;;;;;;;5018117;28;20227;-82
2022/02/25 02:34:19;;;;;;;1.00;0.90;;;;;;;;;;5018257;28;20210;-81
2022/02/25 02:36:48;;;;;;;1.65;1.00;;;;;;;;;;5017988;28;20234;-81
2022/02/25 02:39:15;;;;;;;1.13;1.02;;;;;;;;;;5018048;28;20206;-81
2022/02/25 02:41:45;;;;;;;1.00;0.90;;;;;;;;;;5017458;28;20206;-81
2022/02/25 02:44:12;;;;;;;1.15;0.93;;;;;;;;;;5017980;28;20211;-81
2022/02/25 02:46:40;;;;;;;2.15;1.10;;;;;;;;;;5017863;28;20234;-80
2022/02/25 02:49:08;;;;;;;1.00;0.93;;;;;;;;;;5017553;28;20234;-81
2022/02/25 02:51:36;;;;;;;0.90;0.90;;;;;;;;;;5017742;28;20242;-81
2022/02/25 02:54:04;;;;;;;1.48;0.93;;;;;;;;;;5017769;28;20688;-81
2022/02/25 02:56:31;;;;;;;1.60;1.00;;;;;;;;;;5017758;28;20707;-81
2022/02/25 02:59:00;;;;;;;1.60;0.90;;;;;;;;;;5017701;28;20211;-81
2022/02/25 03:01:30;;;;;;;0.80;0.80;;;;;;;;;;5017199;28;20602;-81
2022/02/25 03:03:58;;;;;;;0.60;0.60;;;;;;;;;;5018394;28;20574;-80
2022/02/25 03:06:26;;;;;;;0.88;0.88;;;;;;;;;;5017449;28;20218;-81
2022/02/25 03:08:54;;;;;;;1.30;0.95;;;;;;;;;;5017792;28;20207;-81
2022/02/25 03:11:21;;;;;;;1.52;0.90;;;;;;;;;;5017137;28;20246;-81
2022/02/25 03:13:49;;;;;;;1.63;0.93;;;;;;;;;;5017686;28;20199;-80
2022/02/25 03:16:18;;;;;;;1.15;1.00;;;;;;;;;;5016949;28;20231;-81
2022/02/25 03:18:45;;;;;;;1.33;0.93;;;;;;;;;;5016757;28;20229;-80
2022/02/25 03:21:14;;;;;;;1.30;1.05;;;;;;;;;;5016677;28;20195;-80
2022/02/25 03:23:41;;;;;;;0.75;0.75;;;;;;;;;;5017220;28;20203;-80
2022/02/25 03:26:11;;;;;;;0.77;0.77;;;;;;;;;;5016804;28;20219;-81
2022/02/25 03:28:38;;;;;;;1.00;1.00;;;;;;;;;;5017782;28;20589;-80
2022/02/25 03:31:06;;;;;;;1.13;1.08;;;;;;;;;;5016947;28;20576;-81
2022/02/25 03:33:34;;;;;;;1.30;1.20;;;;;;;;;;5016334;28;20230;-81
2022/02/25 03:36:01;;;;;;;1.52;1.42;;;;;;;;;;5016904;28;20227;-81
2022/02/25 03:38:29;;;;;;;2.20;1.30;;;;;;;;;;5016218;28;20207;-80
2022/02/25 03:40:56;;;;;;;0.90;0.90;;;;;;;;;;5016867;28;20203;-81
2022/02/25 03:43:23;;;;;;;0.90;0.90;;;;;;;;;;5017046;28;20210;-80
2022/02/25 03:45:51;;;;;;;2.40;1.67;;;;;;;;;;5016850;28;20707;-81
2022/02/25 03:48:18;;;;;;;1.30;1.20;;;;;;;;;;5017614;28;20207;-81
2022/02/25 03:50:47;;;;;;;1.17;1.08;;;;;;;;;;5017110;28;20203;-81
2022/02/25 03:53:14;;;;;;;1.00;0.90;;;;;;;;;;5016152;28;20223;-80
2022/02/25 03:55:41;;;;;;;2.05;1.63;;;;;;;;;;5016424;28;20285;-81
2022/02/25 03:58:09;;;;;;;1.63;1.17;;;;;;;;;;5016419;28;20213;-81
2022/02/25 04:00:36;;;;;;;2.25;1.70;;;;;;;;;;5016217;28;20209;-80
2022/02/25 04:03:03;;;;;;;1.30;1.20;;;;;;;;;;5016101;28;20207;-81
2022/02/25 04:05:31;;;;;;;2.15;1.90;;;;;;;;;;5016251;28;20273;-81
2022/02/25 04:07:59;;;;;;;1.60;1.50;;;;;;;;;;5016006;28;20206;-80
2022/02/25 04:10:27;;;;;;;1.67;1.58;;;;;;;;;;5015842;28;20199;-81
2022/02/25 04:12:54;;;;;;;1.90;1.80;;;;;;;;;;5020868;28;20290;-80
2022/02/25 04:15:22;;;;;;;1.38;1.20;;;;;;;;;;5025052;28;20261;-80
2022/02/25 04:17:49;;;;;;;1.33;1.23;;;;;;;;;;5027793;28;20841;-81
2022/02/25 04:20:17;;;;;;;2.08;1.52;;;;;;;;;;5025056;28;20686;-83
2022/02/25 04:22:44;;;;;;;1.60;1.50;;;;;;;;;;5024169;28;20199;-81
2022/02/25 04:25:14;;;;;;;1.35;1.25;;;;;;;;;;5023078;28;20231;-82
2022/02/25 04:27:41;;;;;;;1.95;1.75;;;;;;;;;;5023426;28;20203;-83
2022/02/25 04:30:09;;;;;;;2.15;2.05;;;;;;;;;;5015791;28;20287;-82
2022/02/25 04:32:36;;;;;;;1.25;1.25;;;;;;;;;;5015896;28;20686;-82
2022/02/25 04:35:04;;;;;;;1.65;1.52;;;;;;;;;;5015937;28;20223;-82
2022/02/25 04:37:32;;;;;;;1.60;1.50;;;;;;;;;;5016063;28;20214;-84
2022/02/25 04:39:59;;;;;;;1.70;1.60;;;;;;;;;;5015758;28;20241;-83
2022/02/25 04:42:28;;;;;;;1.73;1.63;;;;;;;;;;5014568;28;20214;-83
2022/02/25 04:44:55;;;;;;;1.50;1.35;;;;;;;;;;5015314;28;20576;-83
2022/02/25 04:47:23;;;;;;;1.35;1.25;;;;;;;;;;5014882;28;20238;-82
2022/02/25 04:49:50;;;;;;;1.05;1.05;;;;;;;;;;5015570;28;20206;-82
2022/02/25 04:52:17;;;;;;;2.00;1.30;;;;;;;;;;5020821;28;20226;-82
2022/02/25 04:54:45;;;;;;;1.00;1.00;;;;;;;;;;5021923;28;20702;-81
2022/02/25 04:57:13;;;;;;;1.25;1.15;;;;;;;;;;5022044;28;20195;-81
2022/02/25 04:59:42;;;;;;;1.95;1.20;;;;;;;;;;5023373;28;20214;-83
2022/02/25 05:02:09;;;;;;;0.90;0.90;;;;;;;;;;5019884;28;20199;-82
2022/02/25 05:04:36;;;;;;;1.30;1.20;;;;;;;;;;5014846;28;20207;-83
2022/02/25 05:07:05;;;;;;;1.77;1.00;;;;;;;;;;5015429;28;20219;-83
2022/02/25 05:09:32;;;;;;;1.65;1.55;;;;;;;;;;5014965;28;20203;-83
2022/02/25 05:12:00;;;;;;;1.40;1.30;;;;;;;;;;5014260;28;20211;-82
2022/02/25 05:20:24;;;;;;;1.60;1.23;;;;;;;;;;4988624;28;20213;-82
2022/02/25 05:22:53;;;;;;;1.10;1.10;;;;;;;;;;5014041;28;20199;-82
2022/02/25 05:25:22;;;;;;;2.10;1.50;;;;;;;;;;5014610;28;20254;-82
2022/02/25 05:27:50;;;;;;;1.88;1.20;;;;;;;;;;5014298;28;20703;-82
2022/02/25 05:30:18;;;;;;;1.42;1.33;;;;;;;;;;5014227;28;20691;-82
2022/02/25 05:32:48;;;;;;;1.60;1.50;;;;;;;;;;5013971;28;20231;-83
2022/02/25 05:35:16;;;;;;;2.78;2.25;;;;;;;;;;5014587;28;20215;-83
2022/02/25 05:37:46;;;;;;;2.80;1.55;;;;;;;;;;5014205;28;20203;-82
2022/02/25 05:40:16;;;;;;;1.50;1.40;;;;;;;;;;5014690;28;20206;-82
2022/02/25 05:42:44;;;;;;;1.50;1.40;;;;;;;;;;5013840;28;20291;-82
2022/02/25 05:45:12;;;;;;;1.63;1.50;;;;;;;;;;5013824;28;20741;-83
2022/02/25 05:47:40;;;;;;;1.38;1.27;;;;;;;;;;5020033;28;20215;-85
2022/02/25 05:50:12;;;;;;;1.58;1.48;;;;;;;;;;5023061;28;20199;-84
2022/02/25 05:52:40;;;;;;;1.60;1.50;;;;;;;;;;5023665;28;20230;-84
2022/02/25 05:55:09;;;;;;;1.50;1.40;;;;;;;;;;5023045;28;20215;-84
2022/02/25 05:57:36;;;;;;;2.20;1.92;;;;;;;;;;5023324;28;20205;-85
2022/02/25 06:00:05;;;;;;;1.20;1.20;;;;;;;;;;5022708;28;20222;-84
2022/02/25 06:02:34;;;;;;;2.53;2.33;;;;;;;;;;5024766;28;20727;-84
2022/02/25 06:05:01;;;;;;;2.30;1.80;;;;;;;;;;5028108;28;20230;-84
2022/02/25 06:07:30;;;;;;;1.60;1.50;;;;;;;;;;5027452;28;20207;-85
2022/02/25 06:09:57;;;;;;;1.85;1.60;;;;;;;;;;5026839;28;20207;-84
2022/02/25 06:12:25;;;;;;;1.63;1.52;;;;;;;;;;5026688;28;20203;-84
2022/02/25 06:14:52;;;;;;;3.78;2.22;;;;;;;;;;5026942;28;20211;-84
2022/02/25 06:17:19;;;;;;;2.15;1.95;;;;;;;;;;5026792;28;20195;-83
2022/02/25 06:19:46;;;;;;;4.13;1.98;;;;;;;;;;5026449;28;20214;-85
2022/02/25 06:22:14;;;;;;;2.53;1.60;;;;;;;;;;5024784;28;20199;-82
2022/02/25 06:24:42;;;;;;;1.90;1.73;;;;;;;;;;5020736;28;20195;-83
2022/02/25 06:27:10;;;;;;;2.38;1.83;;;;;;;;;;5022383;28;20199;-84
2022/02/25 06:29:37;;;;;;;2.00;1.90;;;;;;;;;;5022294;28;20214;-85
2022/02/25 06:32:05;;;;;;;3.05;2.25;;;;;;;;;;5015644;28;20675;-84
2022/02/25 06:34:33;;;;;;;2.38;2.17;;;;;;;;;;5022297;28;20231;-84
2022/02/25 06:37:00;;;;;;;2.78;2.00;;;;;;;;;;5015740;28;20231;-83
2022/02/25 06:39:27;;;;;;;1.73;1.63;;;;;;;;;;5022186;28;20206;-84
2022/02/25 06:41:56;;;;;;;1.88;1.77;;;;;;;;;;5021521;28;20699;-83
2022/02/25 06:44:23;;;;;;;2.05;1.88;;;;;;;;;;5022032;28;20211;-83
2022/02/25 06:46:51;;;;;;;1.73;1.35;;;;;;;;;;5023557;28;20237;-85
2022/02/25 06:49:18;;;;;;;1.98;1.45;;;;;;;;;;5023279;28;20203;-85
2022/02/25 06:51:45;;;;;;;1.95;1.75;;;;;;;;;;5022596;28;20747;-85
2022/02/25 06:54:13;;;;;;;2.03;1.52;;;;;;;;;;5023292;28;20241;-85
2022/02/25 06:56:40;;;;;;;2.13;2.03;;;;;;;;;;5023221;28;20230;-84
2022/02/25 06:59:09;;;;;;;3.88;2.33;;;;;;;;;;5022610;28;20236;-84
2022/02/25 07:01:37;;;;;;;5.55;2.40;;;;;;;;;;5024240;28;20219;-84
2022/02/25 07:04:05;;;;;;;3.28;2.13;;;;;;;;;;5022636;28;20215;-85
2022/02/25 07:06:37;;;;;;;3.22;1.95;;;;;;;;;;5020904;28;20234;-84
2022/02/25 07:09:05;;;;;;;2.55;2.03;;;;;;;;;;5020315;28;20246;-84
2022/02/25 07:11:33;;;;;;;2.35;1.60;;;;;;;;;;5020873;28;20278;-84
2022/02/25 07:14:00;;;;;;;2.13;1.95;;;;;;;;;;5019400;28;20226;-84
2022/02/25 07:16:29;;;;;;;2.50;2.30;;;;;;;;;;5021287;28;20239;-84
2022/02/25 07:18:56;;;;;;;3.08;2.25;;;;;;;;;;5019647;28;20221;-86
2022/02/25 07:21:23;;;;;;;2.85;2.05;;;;;;;;;;5020840;28;20210;-85
2022/02/25 07:23:51;;;;;;;3.35;2.80;;;;;;;;;;5019426;28;20209;-86
2022/02/25 07:26:18;;;;;;;3.08;2.10;;;;;;;;;;5019252;28;20735;-86
2022/02/25 07:28:46;;;;;;;3.00;2.40;;;;;;;;;;5014302;28;20215;-84
2022/02/25 07:31:13;;;;;;;2.00;1.80;;;;;;;;;;5015829;28;20215;-85
2022/02/25 07:33:42;;;;;;;5.90;2.60;;;;;;;;;;5013625;28;20230;-85
2022/02/25 07:36:10;;;;;;;4.00;2.28;;;;;;;;;;5014994;28;20713;-87
2022/02/25 07:38:37;;;;;;;2.30;1.90;;;;;;;;;;5020134;28;20219;-85
2022/02/25 07:41:04;;;;;;;4.65;2.70;;;;;;;;;;5019412;28;20699;-85
2022/02/25 07:43:32;;;;;;;3.05;2.22;;;;;;;;;;5013521;28;20211;-85
2022/02/25 07:46:02;;;;;;;3.33;2.60;;;;;;;;;;5014891;28;20230;-87
2022/02/25 07:48:30;;;;;;;5.63;2.38;;;;;;;;;;5019983;28;20278;-85
2022/02/25 07:50:59;;;;;;;2.25;1.98;;;;;;;;;;5020219;28;20754;-84
2022/02/25 07:53:27;;;;;;;2.13;1.70;;;;;;;;;;5018642;28;20644;-85
2022/02/25 07:55:55;;;;;;;3.80;2.20;;;;;;;;;;5018028;28;20219;-84
2022/02/25 07:58:22;;;;;;;2.20;1.80;;;;;;;;;;5022378;28;20249;-84
2022/02/25 08:00:49;;;;;;;4.88;2.67;;;;;;;;;;5020532;28;20671;-86
2022/02/25 08:03:17;;;;;;;2.97;2.40;;;;;;;;;;5022619;28;20206;-84
2022/02/25 08:05:44;;;;;;;3.53;2.28;;;;;;;;;;5020649;28;20239;-84
2022/02/25 08:08:13;;;;;;;1.88;1.70;;;;;;;;;;5019595;28;20632;-85
2022/02/25 08:10:40;;;;;;;2.92;1.67;;;;;;;;;;5019461;28;20203;-84
2022/02/25 08:13:09;;;;;;;2.05;1.83;;;;;;;;;;5020439;28;20237;-84
2022/02/25 08:15:36;;;;;;;1.80;1.70;;;;;;;;;;5020483;28;20658;-84
2022/02/25 08:18:06;;;;;;;2.33;1.90;;;;;;;;;;5019690;28;20206;-84
2022/02/25 08:20:35;;;;;;;2.33;1.92;;;;;;;;;;5020994;28;20215;-84
2022/02/25 08:23:03;;;;;;;2.58;2.00;;;;;;;;;;5020541;28;20203;-85
2022/02/25 08:25:33;;;;;;;4.20;2.33;;;;;;;;;;5020421;28;20674;-84
2022/02/25 08:28:01;;;;;;;1.50;1.40;;;;;;;;;;5020303;28;20207;-84
2022/02/25 08:30:28;;;;;;;2.65;1.50;;;;;;;;;;5020251;28;20211;-84
2022/02/25 08:33:00;;;;;;;1.92;1.52;;;;;;;;;;5019305;28;20217;-84
2022/02/25 08:35:29;;;;;;;2.78;2.05;;;;;;;;;;5017747;28;20234;-84
2022/02/25 08:37:57;;;;;;;4.22;1.85;;;;;;;;;;5019947;28;20265;-84
2022/02/25 08:40:26;;;;;;;1.88;1.67;;;;;;;;;;5019274;28;20683;-84
2022/02/25 08:42:55;;;;;;;3.05;1.77;;;;;;;;;;5019075;28;20206;-84
2022/02/25 08:45:22;;;;;;;2.20;1.52;;;;;;;;;;5017964;28;20215;-83
2022/02/25 08:47:50;;;;;;;2.85;1.65;;;;;;;;;;5018294;28;20622;-84
2022/02/25 08:50:19;;;;;;;1.08;1.05;;;;;;;;;;5017772;28;20346;-85
2022/02/25 08:52:49;;;;;;;1.60;1.50;;;;;;;;;;5016310;28;20660;-85
2022/02/25 08:55:16;;;;;;;2.42;1.63;;;;;;;;;;5014878;28;20230;-85
2022/02/25 08:57:44;;;;;;;1.30;1.20;;;;;;;;;;5014812;28;20265;-85
2022/02/25 09:00:17;;;;;;;1.60;1.45;;;;;;;;;;5015595;28;20203;-84
2022/02/25 09:02:46;;;;;;;2.15;1.40;;;;;;;;;;5017383;28;20261;-87
2022/02/25 09:05:15;;;;;;;2.28;1.50;;;;;;;;;;5017063;28;20317;-86
2022/02/25 09:07:42;;;;;;;5.20;2.63;;;;;;;;;;5015740;28;20199;-85
2022/02/25 09:10:12;;;;;;;1.25;1.15;;;;;;;;;;5016024;28;20215;-84
2022/02/25 09:12:41;;;;;;;4.78;2.03;;;;;;;;;;5015023;28;20582;-84
2022/02/25 09:15:13;;;;;;;5.03;2.05;;;;;;;;;;5017372;28;20231;-85
2022/02/25 09:17:41;;;;;;;3.35;2.20;;;;;;;;;;5017516;28;20286;-85
2022/02/25 09:20:11;;;;;;;4.38;1.88;;;;;;;;;;5017330;28;20289;-85
2022/02/25 09:22:38;;;;;;;1.73;1.58;;;;;;;;;;5017803;28;20667;-85
2022/02/25 09:25:06;;;;;;;5.28;2.85;;;;;;;;;;5018947;28;20222;-85
2022/02/25 09:27:34;;;;;;;2.67;1.77;;;;;;;;;;5019463;28;20210;-85
2022/02/25 09:30:02;;;;;;;2.55;1.60;;;;;;;;;;5017676;28;20533;-85
2022/02/25 09:32:31;;;;;;;2.22;1.52;;;;;;;;;;5019235;28;20215;-85
2022/02/25 09:34:58;;;;;;;1.67;1.52;;;;;;;;;;5017029;28;20230;-85
2022/02/25 09:37:25;;;;;;;3.08;2.30;;;;;;;;;;5018372;28;20218;-86
2022/02/25 09:39:53;;;;;;;2.72;1.73;;;;;;;;;;5018593;28;20206;-85
2022/02/25 09:42:22;;;;;;;1.95;1.52;;;;;;;;;;5018177;28;20210;-85
2022/02/25 09:44:49;;;;;;;2.50;1.60;;;;;;;;;;5018167;28;20234;-85
2022/02/25 09:47:18;;;;;;;2.63;1.60;;;;;;;;;;5017177;28;20218;-85
2022/02/25 09:49:47;;;;;;;1.63;1.45;;;;;;;;;;5015462;28;20664;-86
2022/02/25 09:52:17;;;;;;;3.92;1.60;;;;;;;;;;5013258;28;20195;-85
2022/02/25 09:54:45;;;;;;;1.38;1.25;;;;;;;;;;5013701;28;20211;-85
2022/02/25 09:57:18;;;;;;;2.00;1.48;;;;;;;;;;5015319;28;20210;-85
2022/02/25 09:59:45;;;;;;;3.75;1.55;;;;;;;;;;5014320;28;20203;-86
2022/02/25 10:02:13;;;;;;;3.47;2.17;;;;;;;;;;5014805;28;20210;-86
2022/02/25 10:04:41;;;;;;;3.50;1.60;;;;;;;;;;5014058;28;20222;-87
2022/02/25 10:07:28;;;;;;;2.13;1.67;;;;;;;;;;5013168;28;20238;-85
2022/02/25 10:09:56;;;;;;;1.80;1.35;;;;;;;;;;5014258;28;20211;-85
2022/02/25 10:12:23;;;;;;;2.65;1.35;;;;;;;;;;5014428;28;20211;-85
2022/02/25 10:14:51;;;;;;;2.35;1.73;;;;;;;;;;5014137;28;20227;-86
2022/02/25 10:17:21;;;;;;;2.67;1.20;;;;;;;;;;5014905;28;20838;-86
2022/02/25 10:19:51;;;;;;;3.05;1.52;;;;;;;;;;5016406;28;20644;-86
2022/02/25 10:22:25;;;;;;;2.33;1.20;;;;;;;;;;5016126;28;20656;-86
2022/02/25 10:24:58;;;;;;;1.88;1.63;;;;;;;;;;5009878;28;20211;-85
2022/02/25 10:27:28;;;;;;;1.30;1.27;;;;;;;;;;5016821;28;20543;-85
2022/02/25 10:30:04;;;;;;;3.25;1.92;;;;;;;;;;5019250;28;20218;-84
2022/02/25 10:32:38;;;;;;;2.85;1.23;;;;;;;;;;5016968;28;20210;-85
2022/02/25 10:35:30;;;;;;;2.20;1.77;;;;;;;;;;5016540;28;20684;-84
2022/02/25 10:38:05;;;;;;;3.55;1.50;;;;;;;;;;5017100;28;20211;-85
2022/02/25 10:40:36;;;;;;;3.38;1.60;;;;;;;;;;5017040;28;20211;-85
2022/02/25 10:43:08;;;;;;;2.30;1.38;;;;;;;;;;5016680;28;20206;-84
2022/02/25 10:45:39;;;;;;;1.88;1.55;;;;;;;;;;5017736;28;20754;-84
2022/02/25 10:48:08;;;;;;;1.58;1.48;;;;;;;;;;5019329;28;20207;-85
2022/02/25 10:50:51;;;;;;;2.42;1.42;;;;;;;;;;5018987;28;20203;-86
2022/02/25 10:53:26;;;;;;;6.75;1.98;;;;;;;;;;5016545;28;20215;-84
2022/02/25 10:56:06;;;;;;;3.58;1.90;;;;;;;;;;5017539;28;20235;-85
2022/02/25 10:58:39;;;;;;;1.95;1.52;;;;;;;;;;5018479;28;20217;-86
2022/02/25 11:01:07;;;;;;;1.52;1.42;;;;;;;;;;5019442;28;20206;-84
2022/02/25 11:03:35;;;;;;;2.22;1.50;;;;;;;;;;5020149;28;20706;-85
2022/02/25 11:06:02;;;;;;;3.05;1.52;;;;;;;;;;5018477;28;20262;-85
2022/02/25 11:08:29;;;;;;;1.63;1.48;;;;;;;;;;5020190;28;20686;-85
2022/02/25 11:11:00;;;;;;;2.45;1.35;;;;;;;;;;5020960;28;20199;-84
2022/02/25 11:13:27;;;;;;;1.65;1.30;;;;;;;;;;5020557;28;20207;-85
2022/02/25 11:15:55;;;;;;;1.73;1.50;;;;;;;;;;5019773;28;20608;-85
2022/02/25 11:18:24;;;;;;;1.38;1.25;;;;;;;;;;5019245;28;20220;-84
2022/02/25 11:20:52;;;;;;;2.75;1.27;;;;;;;;;;5019515;28;20206;-85
2022/02/25 11:23:20;;;;;;;3.33;1.80;;;;;;;;;;5019695;28;20206;-86
2022/02/25 11:25:49;;;;;;;1.65;1.27;;;;;;;;;;5020049;28;20317;-84
2022/02/25 11:28:25;;;;;;;2.97;1.50;;;;;;;;;;5020635;28;20206;-86
2022/02/25 11:30:58;;;;;;;3.22;1.30;;;;;;;;;;5021007;28;21006;-85
2022/02/25 11:33:27;;;;;;;2.15;1.35;;;;;;;;;;5021347;28;20218;-85
2022/02/25 11:35:58;;;;;;;4.38;2.35;;;;;;;;;;5014328;28;20242;-84
2022/02/25 11:38:31;;;;;;;1.85;1.58;;;;;;;;;;5021512;28;20215;-85
2022/02/25 11:41:01;;;;;;;2.88;2.20;;;;;;;;;;5021968;28;20203;-84
2022/02/25 11:43:37;;;;;;;2.00;1.77;;;;;;;;;;5020653;28;20298;-85
2022/02/25 11:46:05;;;;;;;2.65;2.05;;;;;;;;;;5020839;28;20254;-85
2022/02/25 11:48:56;;;;;;;1.60;1.30;;;;;;;;;;5019294;28;20663;-84
2022/02/25 11:51:35;;;;;;;1.95;1.63;;;;;;;;;;5014955;28;20269;-84
2022/02/25 11:54:31;;;;;;;1.38;1.27;;;;;;;;;;5020473;28;20568;-84
2022/02/25 11:57:23;;;;;;;1.63;1.52;;;;;;;;;;5019698;28;20876;-85
2022/02/25 12:00:23;;;;;;;1.65;1.55;;;;;;;;;;5017924;28;20210;-85
2022/02/25 12:03:15;;;;;;;2.13;1.25;;;;;;;;;;5018224;28;20199;-84
2022/02/25 12:05:45;;;;;;;2.08;1.70;;;;;;;;;;5019506;28;20230;-84
2022/02/25 12:08:32;;;;;;;1.58;1.20;;;;;;;;;;5017303;28;20211;-83
2022/02/25 12:11:33;;;;;;;2.33;1.10;;;;;;;;;;5017783;28;20199;-83
2022/02/25 12:14:01;;;;;;;2.70;1.27;;;;;;;;;;5017989;28;20203;-84
2022/02/25 12:16:33;;;;;;;1.70;1.10;;;;;;;;;;5018846;28;20710;-84
2022/02/25 12:19:21;;;;;;;2.75;1.58;;;;;;;;;;5016868;28;20238;-84
2022/02/25 12:21:49;;;;;;;1.50;1.40;;;;;;;;;;5018790;28;20266;-84
2022/02/25 12:24:17;;;;;;;1.10;1.10;;;;;;;;;;5018228;28;20198;-84
2022/02/25 12:26:58;;;;;;;1.38;1.27;;;;;;;;;;5018304;28;20230;-84
2022/02/25 12:29:35;;;;;;;3.65;2.22;;;;;;;;;;5018563;28;20242;-83
2022/02/25 12:32:05;;;;;;;1.50;1.40;;;;;;;;;;5018265;28;20206;-84
2022/02/25 12:34:32;;;;;;;1.27;1.17;;;;;;;;;;5017734;28;20214;-84
2022/02/25 12:37:02;;;;;;;3.08;1.55;;;;;;;;;;5016532;28;20238;-84
2022/02/25 12:39:33;;;;;;;1.30;1.20;;;;;;;;;;5018335;28;20214;-83
2022/02/25 12:42:06;;;;;;;2.13;1.38;;;;;;;;;;5017292;28;20207;-84
2022/02/25 12:44:36;;;;;;;1.23;1.13;;;;;;;;;;5017815;28;20217;-83
2022/02/25 12:47:07;;;;;;;4.15;1.83;;;;;;;;;;5017201;28;20867;-83
2022/02/25 12:49:37;;;;;;;2.40;1.25;;;;;;;;;;5016963;28;20207;-84
2022/02/25 12:52:10;;;;;;;3.47;1.65;;;;;;;;;;5016464;28;20667;-84
2022/02/25 12:54:39;;;;;;;2.47;1.48;;;;;;;;;;5016969;28;20203;-84
2022/02/25 12:57:11;;;;;;;3.58;1.50;;;;;;;;;;5018123;28;20711;-83
2022/02/25 12:59:45;;;;;;;4.53;2.08;;;;;;;;;;5019530;28;20588;-84
2022/02/25 13:02:17;;;;;;;2.83;1.85;;;;;;;;;;5010678;28;20280;-84
2022/02/25 13:04:46;;;;;;;1.90;1.60;;;;;;;;;;5016832;28;20253;-83
2022/02/25 13:07:15;;;;;;;2.05;1.58;;;;;;;;;;5015916;28;20750;-83
2022/02/25 13:09:43;;;;;;;3.05;1.63;;;;;;;;;;5015333;28;20576;-83
2022/02/25 13:12:15;;;;;;;1.67;1.42;;;;;;;;;;5015583;28;20285;-82
2022/02/25 13:14:46;;;;;;;3.13;1.83;;;;;;;;;;5015349;28;20215;-82
2022/02/25 13:17:18;;;;;;;3.78;2.15;;;;;;;;;;5015019;28;20222;-84
2022/02/25 13:19:48;;;;;;;1.65;1.55;;;;;;;;;;5015992;28;20218;-82
2022/02/25 13:22:19;;;;;;;2.83;2.47;;;;;;;;;;5014335;28;20203;-82
2022/02/25 13:25:02;;;;;;;4.90;2.28;;;;;;;;;;5014769;28;20210;-83
2022/02/25 13:27:39;;;;;;;2.50;2.05;;;;;;;;;;5017372;28;20207;-84
2022/02/25 13:30:22;;;;;;;3.42;1.75;;;;;;;;;;5010612;28;20202;-83
2022/02/25 13:32:54;;;;;;;5.15;2.10;;;;;;;;;;5016280;28;20221;-84
2022/02/25 13:35:24;;;;;;;4.15;1.63;;;;;;;;;;5017438;28;20711;-84
2022/02/25 13:37:56;;;;;;;2.80;2.05;;;;;;;;;;5017718;28;20761;-84
2022/02/25 13:40:29;;;;;;;2.00;1.35;;;;;;;;;;5017203;28;20215;-85
2022/02/25 13:42:57;;;;;;;6.95;2.75;;;;;;;;;;5017629;28;20210;-84
2022/02/25 13:45:36;;;;;;;2.72;1.80;;;;;;;;;;5017659;28;20227;-84
2022/02/25 13:53:54;;;;;;;2.55;2.05;;;;;;;;;;5016883;28;20209;-84
2022/02/25 13:56:29;;;;;;;4.05;1.90;;;;;;;;;;5016611;28;20706;-84
2022/02/25 13:59:05;;;;;;;2.67;2.30;;;;;;;;;;5016032;28;20226;-83
2022/02/25 14:01:33;;;;;;;2.63;1.92;;;;;;;;;;5016117;28;20210;-83
2022/02/25 14:04:13;;;;;;;3.08;1.60;;;;;;;;;;5015984;28;20206;-83
2022/02/25 14:06:52;;;;;;;1.92;1.58;;;;;;;;;;5016672;28;20227;-83
2022/02/25 14:09:23;;;;;;;3.60;2.78;;;;;;;;;;5016571;28;20207;-83
2022/02/25 14:12:05;;;;;;;6.13;2.65;;;;;;;;;;5014952;28;20210;-83
2022/02/25 14:14:35;;;;;;;4.85;2.40;;;;;;;;;;5016226;28;20213;-84
2022/02/25 14:17:09;;;;;;;2.55;1.75;;;;;;;;;;5015342;28;20230;-83
2022/02/25 14:19:38;;;;;;;4.25;3.22;;;;;;;;;;5016434;28;20215;-84
2022/02/25 14:22:15;;;;;;;2.65;1.88;;;;;;;;;;5015263;28;20238;-84
2022/02/25 14:24:47;;;;;;;2.67;2.17;;;;;;;;;;5019637;28;20718;-83
2022/02/25 14:27:18;;;;;;;1.83;1.48;;;;;;;;;;5019099;28;20230;-84
2022/02/25 14:29:59;;;;;;;1.90;1.80;;;;;;;;;;5019627;28;20264;-84
2022/02/25 14:32:27;;;;;;;2.33;1.50;;;;;;;;;;5014667;28;20207;-83
2022/02/25 14:34:56;;;;;;;2.70;1.80;;;;;;;;;;5012766;28;20625;-84
2022/02/25 14:37:30;;;;;;;7.93;3.85;;;;;;;;;;5014888;28;20211;-84
2022/02/25 14:40:00;;;;;;;2.30;2.10;;;;;;;;;;5016566;28;20265;-84
2022/02/25 14:42:28;;;;;;;2.83;2.53;;;;;;;;;;5020030;28;20207;-84
2022/02/25 14:44:56;;;;;;;2.38;2.17;;;;;;;;;;5019734;28;20678;-83
2022/02/25 14:47:23;;;;;;;2.58;1.80;;;;;;;;;;5019104;28;20250;-83
2022/02/25 14:49:50;;;;;;;5.78;2.10;;;;;;;;;;5019115;28;20214;-83
2022/02/25 14:52:19;;;;;;;3.80;2.85;;;;;;;;;;5017871;28;20214;-84
2022/02/25 14:54:47;;;;;;;2.63;2.20;;;;;;;;;;5018453;28;20219;-83
2022/02/25 14:57:14;;;;;;;2.40;2.08;;;;;;;;;;5019397;28;20207;-83
2022/02/25 14:59:44;;;;;;;2.92;2.63;;;;;;;;;;5018206;28;20235;-83
2022/02/25 15:02:11;;;;;;;2.30;1.92;;;;;;;;;;5017428;28;20742;-83
2022/02/25 15:04:39;;;;;;;4.93;2.20;;;;;;;;;;5018880;28;20257;-83
2022/02/25 15:07:08;;;;;;;4.00;2.78;;;;;;;;;;5019176;28;20227;-84
2022/02/25 15:09:37;;;;;;;4.20;1.80;;;;;;;;;;5018880;28;20207;-83